Time;durP1;ratioP1;P1;durP2;ratioP2;P2;SDS_P1;SDS_P2;PMS_P1;PMS_P2;Temp;Humidity;BMP_temperature;BMP_pressure;BME280_temperature;BME280_humidity;BME280_pressure;Samples;Min_cycle;Max_cycle;Signal;HPM_P1;HPM_P2
2022/01/17 00:05:08;;;;;;;19.20;10.68;;;;;;;1.15;87.07;99226.86;4036305;87;21058;-89
2022/01/17 00:11:14;;;;;;;19.55;10.82;;;;;;;1.11;87.34;99213.73;4031346;87;21081;-89
2022/01/17 00:23:17;;;;;;;19.00;10.68;;;;;;;1.16;87.97;99199.35;4009610;87;21137;-90
2022/01/17 00:29:18;;;;;;;17.37;9.98;;;;;;;1.21;88.52;99198.66;4023079;87;21074;-89
2022/01/17 00:35:20;;;;;;;19.73;10.65;;;;;;;1.20;88.60;99182.78;4038416;87;21107;-89
2022/01/17 00:41:22;;;;;;;18.75;10.10;;;;;;;1.22;88.70;99181.94;4038264;87;21038;-90
2022/01/17 00:47:23;;;;;;;13.65;8.68;;;;;;;1.20;88.64;99180.89;4039564;87;21093;-90
2022/01/17 00:53:24;;;;;;;20.15;10.48;;;;;;;1.19;89.08;99179.28;4039856;87;21109;-90
2022/01/17 00:59:26;;;;;;;14.70;9.43;;;;;;;1.16;89.37;99169.69;4057762;86;21403;-90
2022/01/17 01:05:28;;;;;;;15.23;8.53;;;;;;;1.17;89.63;99172.62;4054474;87;21030;-90
2022/01/17 01:11:30;;;;;;;13.03;7.95;;;;;;;1.14;89.79;99158.41;4052205;86;21397;-90
2022/01/17 01:17:46;;;;;;;16.87;10.00;;;;;;;1.11;90.41;99154.41;4060318;86;21041;-90
2022/01/17 01:30:01;;;;;;;13.20;7.92;;;;;;;1.11;90.81;99124.75;4044651;86;21614;-92
2022/01/17 01:36:09;;;;;;;12.05;7.72;;;;;;;1.16;91.81;99117.88;4043539;86;21046;-89
2022/01/17 01:42:15;;;;;;;12.05;7.80;;;;;;;1.25;91.58;99092.32;4043651;86;21038;-89
2022/01/17 01:48:13;;;;;;;12.70;7.87;;;;;;;1.29;91.24;99102.17;4051423;86;21042;-91
2022/01/17 01:54:16;;;;;;;13.68;7.28;;;;;;;1.23;91.31;99101.27;4059749;86;21080;-89
2022/01/17 02:00:18;;;;;;;11.75;7.17;;;;;;;1.30;91.83;99082.17;4056845;87;21557;-90
2022/01/17 02:06:24;;;;;;;13.68;8.60;;;;;;;1.38;91.61;99063.87;4041155;86;22197;-90
2022/01/17 02:12:28;;;;;;;13.00;8.00;;;;;;;1.48;91.43;99046.06;4052513;86;21109;-90
2022/01/17 02:18:31;;;;;;;9.73;6.70;;;;;;;1.57;91.54;99036.08;3956254;88;21606;-90
2022/01/17 02:24:32;;;;;;;11.03;6.65;;;;;;;1.58;91.21;99031.48;3941894;88;21107;-90
2022/01/17 02:30:42;;;;;;;11.48;6.50;;;;;;;1.61;91.16;99026.23;3937982;89;22502;-89
2022/01/17 02:36:38;;;;;;;9.23;5.75;;;;;;;1.61;91.07;99010.62;3942464;88;21091;-92
2022/01/17 02:42:43;;;;;;;9.53;5.25;;;;;;;1.67;90.94;98997.20;3958490;88;21703;-89
2022/01/17 02:48:44;;;;;;;8.68;5.62;;;;;;;1.68;90.82;98973.72;3961965;88;22227;-89
2022/01/17 02:54:46;;;;;;;6.95;4.83;;;;;;;1.69;90.68;98968.55;3949993;87;21232;-89
2022/01/17 03:00:49;;;;;;;8.70;4.47;;;;;;;1.71;90.49;98963.06;3922292;90;21591;-90
2022/01/17 03:06:56;;;;;;;6.27;3.87;;;;;;;1.71;90.37;98956.89;3923499;89;21465;-89
2022/01/17 03:13:14;;;;;;;8.48;4.37;;;;;;;1.79;90.07;98963.63;3931362;89;21870;-88
2022/01/17 03:19:16;;;;;;;6.83;3.70;;;;;;;1.85;89.95;98958.30;3936060;88;21110;-89
2022/01/17 03:25:17;;;;;;;6.72;4.03;;;;;;;1.95;89.69;98951.23;3928415;89;21752;-89
2022/01/17 03:31:19;;;;;;;8.80;4.78;;;;;;;2.03;89.46;98939.64;3922915;89;21124;-89
2022/01/17 03:37:20;;;;;;;9.95;6.22;;;;;;;2.04;89.36;98938.52;3925006;89;21022;-90
2022/01/17 03:43:23;;;;;;;12.55;6.12;;;;;;;2.03;89.29;98945.04;3923457;89;21235;-88
2022/01/17 03:49:24;;;;;;;8.50;5.87;;;;;;;2.02;89.11;98930.51;3928700;89;21102;-88
2022/01/17 03:55:27;;;;;;;7.90;5.70;;;;;;;2.01;88.93;98921.61;3976286;87;21061;-90
2022/01/17 04:01:29;;;;;;;6.95;4.40;;;;;;;1.98;88.88;98923.59;4045113;85;21743;-87
2022/01/17 04:07:30;;;;;;;6.97;5.22;;;;;;;2.13;87.86;98914.98;4043918;86;21082;-87
2022/01/17 04:13:33;;;;;;;11.83;6.83;;;;;;;2.22;88.13;98894.17;4045735;87;21148;-86
2022/01/17 04:19:34;;;;;;;12.40;6.90;;;;;;;2.23;87.89;98905.74;4076777;81;2064067;-88
2022/01/17 04:25:38;;;;;;;13.65;7.90;;;;;;;2.23;87.85;98911.14;4117865;85;22200;-90
2022/01/17 04:31:40;;;;;;;13.70;8.43;;;;;;;2.13;88.17;98918.26;4158718;83;21054;-89
2022/01/17 04:37:41;;;;;;;17.62;9.15;;;;;;;2.08;88.37;98911.67;4192680;83;21028;-91
2022/01/17 04:43:55;;;;;;;16.97;10.50;;;;;;;2.03;88.50;98926.69;4178757;84;21049;-87
2022/01/17 04:49:46;;;;;;;15.30;9.08;;;;;;;1.93;88.94;98919.70;4184962;83;21095;-90
2022/01/17 04:55:49;;;;;;;18.87;10.63;;;;;;;1.89;89.41;98913.38;4164739;84;21789;-90
2022/01/17 05:01:50;;;;;;;19.42;10.30;;;;;;;1.85;89.48;98908.94;4154312;84;21058;-91
2022/01/17 05:07:52;;;;;;;16.93;10.45;;;;;;;1.85;89.57;98902.20;4157269;84;21113;-89
2022/01/17 05:13:54;;;;;;;17.30;9.85;;;;;;;1.86;89.60;98902.42;4154598;84;21077;-90
2022/01/17 05:19:58;;;;;;;21.42;11.73;;;;;;;1.95;89.64;98891.84;4161477;84;21569;-90
2022/01/17 05:25:58;;;;;;;18.92;10.65;;;;;;;1.98;89.45;98870.95;4154011;84;21944;-90
2022/01/17 05:32:02;;;;;;;19.02;10.45;;;;;;;2.03;89.42;98849.73;4159135;84;21535;-90
2022/01/17 05:38:04;;;;;;;16.62;9.43;;;;;;;2.05;89.38;98837.48;4151890;84;21637;-90
2022/01/17 05:44:06;;;;;;;19.45;10.70;;;;;;;2.10;89.20;98823.05;4166315;84;21046;-91
2022/01/17 05:50:08;;;;;;;18.62;9.10;;;;;;;2.17;89.07;98811.97;4165303;84;21046;-90
2022/01/17 05:56:09;;;;;;;18.75;10.32;;;;;;;2.30;88.63;98817.69;4150783;84;21556;-89
2022/01/17 06:02:12;;;;;;;19.10;9.85;;;;;;;2.28;88.51;98790.23;4128011;84;21015;-89
2022/01/17 06:08:14;;;;;;;18.48;10.32;;;;;;;2.32;88.67;98801.19;4145756;84;21035;-91
2022/01/17 06:14:17;;;;;;;19.10;10.43;;;;;;;2.34;88.49;98792.17;4147264;84;21101;-89
2022/01/17 06:20:19;;;;;;;17.30;8.78;;;;;;;2.35;88.28;98781.05;4137994;84;21855;-90
2022/01/17 06:26:22;;;;;;;17.85;10.50;;;;;;;2.50;87.16;98795.36;4142334;84;21023;-91
2022/01/17 06:32:24;;;;;;;17.82;9.70;;;;;;;2.56;87.15;98785.95;4130680;84;21003;-91
2022/01/17 06:38:25;;;;;;;16.48;8.58;;;;;;;2.56;87.33;98765.67;4129620;84;21034;-91
2022/01/17 06:44:27;;;;;;;15.95;9.30;;;;;;;2.67;86.50;98743.11;4132000;84;21081;-89
2022/01/17 06:50:31;;;;;;;17.27;8.43;;;;;;;2.70;86.36;98734.34;4141412;84;21098;-92
2022/01/17 06:56:33;;;;;;;15.15;8.20;;;;;;;2.73;86.59;98737.73;4139198;84;21137;-91
2022/01/17 07:02:34;;;;;;;15.30;8.08;;;;;;;2.84;86.20;98730.80;4129105;84;21090;-90
2022/01/17 07:08:36;;;;;;;14.28;8.05;;;;;;;2.84;85.36;98683.50;4130281;84;21030;-89
2022/01/17 07:14:41;;;;;;;18.23;9.30;;;;;;;2.84;86.02;98676.19;4133978;84;21079;-90
2022/01/17 07:20:41;;;;;;;17.32;9.68;;;;;;;2.79;86.18;98691.25;4127914;84;21113;-90
2022/01/17 07:26:45;;;;;;;15.93;9.18;;;;;;;2.71;86.57;98727.25;4128959;84;21114;-90
2022/01/17 07:32:50;;;;;;;17.20;8.85;;;;;;;2.73;87.23;98749.89;4133086;84;22317;-89
2022/01/17 07:38:52;;;;;;;14.80;8.10;;;;;;;2.62;87.95;98763.01;4129440;84;21113;-90
2022/01/17 07:44:57;;;;;;;21.55;11.70;;;;;;;2.49;89.18;98726.80;4134131;84;21872;-91
2022/01/17 07:51:00;;;;;;;20.70;11.55;;;;;;;2.30;89.25;98685.92;4131595;84;21114;-90
2022/01/17 07:57:02;;;;;;;20.02;11.33;;;;;;;2.24;90.96;98665.63;4141084;84;21884;-92
2022/01/17 08:03:06;;;;;;;18.55;10.65;;;;;;;2.12;90.47;98643.92;4145524;84;21149;-91
2022/01/17 08:09:13;;;;;;;15.13;8.70;;;;;;;2.07;90.64;98603.06;4147656;84;21098;-92
2022/01/17 08:15:16;;;;;;;18.27;9.30;;;;;;;2.06;91.13;98581.24;4152028;84;21074;-91
2022/01/17 08:21:19;;;;;;;18.73;10.30;;;;;;;2.13;91.99;98573.39;4147677;84;21669;-88
2022/01/17 08:27:20;;;;;;;16.35;8.15;;;;;;;2.25;92.60;98550.52;4147965;84;21094;-90
2022/01/17 08:33:23;;;;;;;13.20;8.05;;;;;;;2.30;91.79;98535.44;4149323;84;21068;-91
2022/01/17 08:39:52;;;;;;;24.72;13.13;;;;;;;2.43;91.57;98561.38;4147619;84;21041;-90
2022/01/17 08:45:55;;;;;;;30.45;15.08;;;;;;;2.47;91.55;98535.85;4146566;84;21073;-91
2022/01/17 08:51:56;;;;;;;14.45;8.10;;;;;;;2.49;91.39;98529.56;4151864;84;21064;-90
2022/01/17 08:57:59;;;;;;;10.30;6.12;;;;;;;2.52;91.41;98485.08;4168875;84;21110;-90
2022/01/17 09:04:03;;;;;;;7.83;4.58;;;;;;;2.70;90.83;98465.42;4190756;83;21060;-90
2022/01/17 09:10:07;;;;;;;10.27;5.53;;;;;;;2.90;89.28;98445.05;4153302;84;21038;-90
2022/01/17 09:16:10;;;;;;;15.35;6.20;;;;;;;3.00;89.58;98445.97;4183889;84;21076;-91
2022/01/17 09:22:14;;;;;;;12.23;6.72;;;;;;;3.12;89.16;98434.34;4184279;84;21092;-90
2022/01/17 09:28:17;;;;;;;11.43;5.72;;;;;;;3.16;89.26;98400.86;4177160;83;21494;-91
2022/01/17 09:34:23;;;;;;;14.38;8.05;;;;;;;3.14;89.47;98420.72;4189429;83;21090;-92
2022/01/17 09:40:25;;;;;;;12.20;7.72;;;;;;;3.07;89.60;98423.19;4186698;84;21569;-90
2022/01/17 09:46:32;;;;;;;15.53;7.97;;;;;;;3.02;90.13;98390.20;4172967;84;21061;-91
2022/01/17 09:52:36;;;;;;;16.07;9.18;;;;;;;2.95;90.78;98375.89;4176906;82;21058;-90
2022/01/17 09:58:45;;;;;;;12.10;7.00;;;;;;;2.86;91.20;98358.22;4163572;84;21023;-91
2022/01/17 10:04:59;;;;;;;19.55;8.60;;;;;;;2.79;92.26;98347.97;4125320;84;21140;-91
2022/01/17 10:11:05;;;;;;;13.80;8.00;;;;;;;2.66;91.94;98355.08;4145646;84;21550;-90
2022/01/17 10:17:13;;;;;;;13.83;7.87;;;;;;;2.61;92.66;98366.11;4145582;84;21077;-92
2022/01/17 10:23:29;;;;;;;12.68;8.05;;;;;;;2.57;93.04;98317.35;4151067;84;21033;-93
2022/01/17 10:35:35;;;;;;;10.70;6.45;;;;;;;2.66;93.58;98286.17;4146515;84;21145;-91
2022/01/17 10:41:37;;;;;;;15.08;8.35;;;;;;;2.73;94.17;98270.16;4148598;84;21165;-92
2022/01/17 10:47:43;;;;;;;13.48;7.70;;;;;;;2.79;94.21;98253.36;4150839;84;21066;-92
2022/01/17 10:53:50;;;;;;;14.58;7.45;;;;;;;2.82;94.03;98242.42;4152394;84;21126;-91
2022/01/17 10:59:52;;;;;;;13.50;7.15;;;;;;;2.77;94.10;98271.83;4127760;84;22087;-90
2022/01/17 11:06:14;;;;;;;12.43;6.83;;;;;;;2.83;94.85;98234.00;4151106;84;21086;-91
2022/01/17 11:12:20;;;;;;;13.08;7.33;;;;;;;2.84;95.18;98254.48;4148144;84;21026;-94
2022/01/17 11:18:27;;;;;;;9.10;5.00;;;;;;;2.78;95.39;98236.14;4148231;84;21078;-92
2022/01/17 11:24:39;;;;;;;12.10;5.50;;;;;;;2.74;95.86;98240.66;4132897;84;21030;-93
2022/01/17 11:30:40;;;;;;;11.25;5.65;;;;;;;2.64;95.72;98272.20;4145946;84;21065;-91
2022/01/17 11:36:45;;;;;;;9.90;5.75;;;;;;;2.59;95.85;98250.81;4147389;84;21061;-91
2022/01/17 11:43:04;;;;;;;;;;;;;;;;;;;;;
2022/01/17 11:49:16;;;;;;;10.78;6.35;;;;;;;2.54;96.57;98212.66;4129755;84;21094;-92
2022/01/17 11:55:48;;;;;;;12.90;6.20;;;;;;;2.57;96.86;98217.37;4153285;84;21022;-93
2022/01/17 12:02:16;;;;;;;9.20;5.25;;;;;;;2.55;97.08;98214.22;4157699;84;21030;-94
2022/01/17 12:14:51;;;;;;;14.63;6.47;;;;;;;2.50;97.92;98206.38;4139794;84;20415;-92
2022/01/17 12:20:51;;;;;;;8.03;4.72;;;;;;;2.45;98.03;98209.86;4153279;84;21065;-93
2022/01/17 12:27:02;;;;;;;10.82;5.67;;;;;;;2.41;97.72;98215.73;4175608;83;21109;-92
2022/01/17 12:33:12;;;;;;;8.13;4.72;;;;;;;2.35;97.97;98219.80;4163778;84;21089;-92
2022/01/17 12:39:20;;;;;;;3.47;2.00;;;;;;;2.34;98.66;98361.35;4156276;84;21029;-89
2022/01/17 12:45:29;;;;;;;2.02;0.93;;;;;;;1.96;97.72;98523.58;4165993;84;21068;-91
2022/01/17 12:51:30;;;;;;;12.70;5.58;;;;;;;1.01;98.23;98528.53;4162719;84;20995;-92
2022/01/17 12:57:44;;;;;;;4.55;3.30;;;;;;;0.60;98.79;98513.53;4151545;83;21927;-91
2022/01/17 13:03:47;;;;;;;3.10;1.27;;;;;;;0.41;98.22;98545.44;4173455;83;21069;-92
2022/01/17 13:09:49;;;;;;;2.30;1.42;;;;;;;0.33;98.18;98575.85;4174030;84;21186;-91
2022/01/17 13:16:04;;;;;;;2.58;1.10;;;;;;;0.32;98.73;98571.55;4192047;84;20990;-92
2022/01/17 13:22:07;;;;;;;5.67;2.45;;;;;;;0.31;98.44;98561.91;4180029;83;21545;-90
2022/01/17 13:28:08;;;;;;;5.65;3.10;;;;;;;0.27;98.10;98573.09;4175066;84;21927;-90
2022/01/17 13:34:24;;;;;;;7.33;2.58;;;;;;;0.28;98.05;98575.46;4176758;83;21014;-89
2022/01/17 13:40:26;;;;;;;10.17;5.13;;;;;;;0.30;98.17;98603.41;4180314;84;21096;-90
2022/01/17 13:46:27;;;;;;;13.15;6.62;;;;;;;0.30;97.92;98610.91;4183994;84;21078;-90
2022/01/17 13:52:28;;;;;;;6.92;3.92;;;;;;;0.37;97.81;98634.67;4191153;83;21031;-90
2022/01/17 13:58:33;;;;;;;8.00;4.75;;;;;;;0.32;97.40;98623.52;4163769;84;21059;-91
2022/01/17 14:04:40;;;;;;;10.65;5.85;;;;;;;0.28;97.29;98658.12;4129068;84;21450;-90
2022/01/17 14:10:58;;;;;;;9.38;4.42;;;;;;;0.19;97.27;98720.58;4129320;84;21055;-91
2022/01/17 14:16:59;;;;;;;10.10;4.08;;;;;;;0.03;96.76;98718.08;4129916;85;21030;-91
2022/01/17 14:23:01;;;;;;;12.73;6.70;;;;;;;-0.10;96.64;98715.75;4130581;84;21109;-90
2022/01/17 14:29:05;;;;;;;18.85;5.92;;;;;;;-0.15;96.60;98720.72;4130053;84;21516;-90
2022/01/17 14:35:08;;;;;;;22.60;10.23;;;;;;;-0.21;96.49;98752.91;4129245;84;21625;-91
2022/01/17 14:41:23;;;;;;;11.73;7.10;;;;;;;-0.23;96.57;98781.20;4131281;84;21034;-90
2022/01/17 14:47:29;;;;;;;13.40;5.95;;;;;;;-0.23;96.69;98804.08;4131948;84;21074;-89
2022/01/17 14:53:30;;;;;;;14.23;7.23;;;;;;;-0.30;96.65;98826.59;4127224;84;21141;-91
2022/01/17 14:59:40;;;;;;;13.40;7.15;;;;;;;-0.34;96.66;98839.05;4155909;84;21093;-91
2022/01/17 15:05:37;;;;;;;17.87;7.70;;;;;;;-0.40;96.61;98869.88;4174938;84;21053;-91
2022/01/17 15:11:40;;;;;;;19.37;9.20;;;;;;;-0.55;96.53;98859.50;4177855;83;21093;-90
2022/01/17 15:17:46;;;;;;;27.60;12.20;;;;;;;-0.63;96.58;98895.17;4186266;83;21053;-91
2022/01/17 15:23:47;;;;;;;26.67;12.77;;;;;;;-0.59;96.62;98920.34;4169951;84;21064;-90
2022/01/17 15:29:49;;;;;;;22.80;10.93;;;;;;;-0.67;96.63;98935.30;4164735;84;21995;-91
2022/01/17 15:35:50;;;;;;;21.60;11.00;;;;;;;-0.74;96.71;98945.69;4173566;84;21562;-91
2022/01/17 15:41:52;;;;;;;24.40;11.12;;;;;;;-0.77;96.72;98963.77;4176386;84;21567;-91
2022/01/17 15:47:54;;;;;;;25.12;10.65;;;;;;;-0.91;96.72;98962.97;4178778;82;21068;-91
2022/01/17 15:53:56;;;;;;;25.62;11.65;;;;;;;-0.91;96.72;98962.97;4176735;84;21649;-90
2022/01/17 15:59:58;;;;;;;31.50;13.25;;;;;;;-0.73;97.25;98978.19;4174346;84;21082;-90
2022/01/17 16:06:00;;;;;;;22.67;11.85;;;;;;;-0.68;97.10;98972.70;4161227;84;21002;-90
2022/01/17 16:12:02;;;;;;;25.92;11.88;;;;;;;-0.64;97.22;98993.06;4151864;84;21631;-90
2022/01/17 16:18:03;;;;;;;28.38;13.35;;;;;;;-0.74;97.16;98977.14;4157622;84;20996;-90
2022/01/17 16:24:07;;;;;;;23.52;12.05;;;;;;;-0.71;96.94;99000.19;4154931;84;21032;-89
2022/01/17 16:30:08;;;;;;;30.08;14.28;;;;;;;-0.76;96.99;99003.52;4157327;84;21066;-89
2022/01/17 16:36:11;;;;;;;28.23;14.33;;;;;;;-0.80;97.00;99014.64;4152243;84;21696;-90
2022/01/17 16:42:13;;;;;;;30.88;15.63;;;;;;;-0.75;97.09;99029.33;4156247;84;21812;-90
2022/01/17 16:48:15;;;;;;;33.70;16.40;;;;;;;-0.70;97.19;99043.44;4141232;84;21055;-90
2022/01/17 16:54:16;;;;;;;31.80;15.23;;;;;;;-0.74;97.01;99056.44;4158312;84;21502;-90
2022/01/17 17:00:18;;;;;;;38.48;17.27;;;;;;;-0.78;96.93;99071.55;4156842;83;21956;-89
2022/01/17 17:06:19;;;;;;;26.30;13.03;;;;;;;-0.81;96.96;99101.72;4141116;84;20998;-88
2022/01/17 17:12:20;;;;;;;32.67;13.75;;;;;;;-0.82;97.21;99117.07;4143068;84;21131;-90
2022/01/17 17:18:22;;;;;;;29.12;13.05;;;;;;;-0.77;97.50;99134.98;4148202;84;21035;-89
2022/01/17 17:24:23;;;;;;;31.17;13.75;;;;;;;-0.62;97.41;99181.73;4144837;84;21613;-86
2022/01/17 17:30:25;;;;;;;39.85;17.50;;;;;;;-0.62;97.41;99181.73;4146245;84;21546;-87
2022/01/17 17:36:27;;;;;;;29.32;15.05;;;;;;;-0.53;97.55;99235.88;4151683;84;21567;-86
2022/01/17 17:42:28;;;;;;;29.87;13.98;;;;;;;-0.58;98.07;99237.31;4145393;84;21054;-87
2022/01/17 17:48:30;;;;;;;33.30;15.30;;;;;;;-0.55;98.25;99258.23;4144568;84;21114;-86
2022/01/17 17:54:33;;;;;;;28.47;12.85;;;;;;;-0.52;98.50;99260.32;4143048;84;20993;-87
2022/01/17 18:00:37;;;;;;;28.47;12.30;;;;;;;-0.53;98.59;99289.66;4152562;84;21107;-87
2022/01/17 18:06:39;;;;;;;23.25;9.78;;;;;;;-0.63;98.47;99289.05;4154992;84;21566;-87
2022/01/17 18:12:40;;;;;;;26.45;11.60;;;;;;;-0.62;98.07;99300.84;4161302;84;21129;-88
2022/01/17 18:18:43;;;;;;;19.98;10.23;;;;;;;-0.73;98.02;99329.53;4156556;84;21039;-87
2022/01/17 18:24:45;;;;;;;54.33;21.55;;;;;;;-0.73;98.02;99329.53;4154862;84;21111;-87
2022/01/17 18:30:47;;;;;;;79.90;34.25;;;;;;;-0.89;97.84;99334.91;4147663;84;21598;-90
2022/01/17 18:36:49;;;;;;;39.80;19.37;;;;;;;-0.80;98.09;99370.21;4156976;84;21020;-90
2022/01/17 18:42:50;;;;;;;28.77;11.80;;;;;;;-0.83;97.87;99396.33;4156258;84;21063;-91
2022/01/17 18:48:55;;;;;;;29.98;13.28;;;;;;;-0.83;97.87;99396.33;4154647;84;21186;-90
2022/01/17 18:54:57;;;;;;;35.03;13.38;;;;;;;-0.87;97.67;99411.99;4158273;84;21645;-89
2022/01/17 19:00:58;;;;;;;33.55;12.73;;;;;;;-0.92;97.53;99423.61;4029144;84;9999799;-89
2022/01/17 19:07:01;;;;;;;37.75;13.58;;;;;;;-1.01;97.54;99429.92;4148227;84;21000;-89
2022/01/17 19:13:03;;;;;;;29.67;10.30;;;;;;;-1.06;97.51;99439.38;4161369;84;22233;-89
2022/01/17 19:19:30;;;;;;;27.55;10.13;;;;;;;-1.11;97.49;99441.59;4161968;84;22199;-89
2022/01/17 19:25:27;;;;;;;25.23;9.50;;;;;;;-1.16;97.39;99452.39;4152893;84;21034;-89
2022/01/17 19:31:28;;;;;;;23.70;8.35;;;;;;;-1.20;97.35;99469.38;4166576;84;21066;-88
2022/01/17 19:37:29;;;;;;;22.00;9.23;;;;;;;-1.24;97.37;99480.45;4159690;84;21073;-88
2022/01/17 19:43:31;;;;;;;28.35;10.63;;;;;;;-1.30;97.22;99497.72;4157103;84;21543;-89
2022/01/17 19:49:32;;;;;;;29.25;9.88;;;;;;;-1.32;97.32;99512.78;4149641;84;21078;-89
2022/01/17 19:55:34;;;;;;;30.57;11.03;;;;;;;-1.37;97.23;99526.25;4142781;84;21917;-89
2022/01/17 20:01:36;;;;;;;24.35;10.08;;;;;;;-1.43;97.15;99530.08;4144618;84;21047;-89
2022/01/17 20:07:38;;;;;;;29.30;11.07;;;;;;;-1.49;97.07;99538.45;4177516;84;21397;-88
2022/01/17 20:13:44;;;;;;;32.48;12.05;;;;;;;-1.52;97.26;99565.87;4175307;84;21600;-88
2022/01/17 20:19:42;;;;;;;39.53;13.28;;;;;;;-1.55;97.29;99583.33;4178264;83;21026;-88
2022/01/17 20:25:51;;;;;;;33.08;14.55;;;;;;;-1.59;97.28;99603.78;4174577;84;21098;-87
2022/01/17 20:31:53;;;;;;;39.45;14.78;;;;;;;-1.64;97.23;99618.59;4184869;84;21042;-86
2022/01/17 20:45:15;;;;;;;29.23;9.85;;;;;;;-1.70;97.37;99668.84;4158650;84;21535;-85
2022/01/17 20:51:27;;;;;;;39.50;13.53;;;;;;;-1.74;97.36;99669.11;4182580;84;21003;-85
2022/01/17 20:57:56;;;;;;;35.27;13.27;;;;;;;-1.74;97.39;99691.93;4177833;84;21066;-85
2022/01/17 21:04:08;;;;;;;42.60;14.50;;;;;;;-1.73;97.40;99711.53;4152715;84;21011;-85
2022/01/17 21:17:04;;;;;;;32.17;12.60;;;;;;;-1.78;97.17;99729.81;4138440;85;21033;-85
2022/01/17 21:23:07;;;;;;;34.47;13.40;;;;;;;-1.83;97.18;99743.25;4104728;85;21132;-85
2022/01/17 21:29:34;;;;;;;36.43;12.63;;;;;;;-1.87;97.33;99744.89;4099090;85;21077;-84
2022/01/17 21:36:17;;;;;;;39.43;14.57;;;;;;;-1.85;97.29;99754.01;4094708;85;21582;-84
2022/01/17 21:42:18;;;;;;;37.13;13.17;;;;;;;-1.88;97.28;99774.69;4135153;83;21050;-84
2022/01/17 21:49:34;;;;;;;40.30;13.00;;;;;;;-1.92;97.24;99782.48;4125051;85;21066;-84
2022/01/17 21:55:39;;;;;;;44.77;14.77;;;;;;;-1.95;97.30;99788.40;4121813;85;21066;-86
2022/01/17 22:01:41;;;;;;;35.97;13.33;;;;;;;-2.02;97.29;99795.92;4124278;85;21651;-84
2022/01/17 22:20:55;;;;;;;38.73;13.53;;;;;;;-2.09;97.45;99815.55;4111386;85;21002;-84
2022/01/17 22:26:57;;;;;;;56.43;14.37;;;;;;;-2.06;97.47;99832.96;4140903;85;21082;-83
2022/01/17 22:32:58;;;;;;;33.17;12.50;;;;;;;-2.00;97.34;99842.07;4132679;85;21102;-84
2022/01/17 22:38:59;;;;;;;30.97;11.17;;;;;;;-2.07;97.37;99856.30;4122417;85;21055;-84
2022/01/17 22:45:06;;;;;;;25.40;11.23;;;;;;;-2.10;97.41;99858.73;4121985;85;21499;-83
2022/01/17 22:51:11;;;;;;;39.90;12.10;;;;;;;-2.12;97.41;99862.22;4133873;85;21086;-83
2022/01/17 22:57:24;;;;;;;29.17;10.50;;;;;;;-2.10;97.40;99873.49;4145835;85;21594;-83
2022/01/17 23:03:54;;;;;;;34.20;11.30;;;;;;;-2.10;97.39;99891.72;4135434;84;21128;-84
2022/01/17 23:09:59;;;;;;;34.27;12.33;;;;;;;-2.05;97.55;99907.03;4039787;87;21081;-83
2022/01/17 23:23:19;;;;;;;38.33;12.33;;;;;;;-1.95;97.72;99918.55;4032911;88;21064;-84
2022/01/17 23:29:22;;;;;;;41.97;12.90;;;;;;;-1.87;97.80;99922.55;4057605;87;21144;-84
2022/01/17 23:35:50;;;;;;;36.40;12.50;;;;;;;-1.83;97.54;99923.59;3939369;89;21767;-84
2022/01/17 23:41:51;;;;;;;38.57;11.83;;;;;;;-1.77;97.77;99935.40;3937332;89;21074;-83
2022/01/17 23:47:52;;;;;;;33.47;11.40;;;;;;;-1.72;97.57;99948.81;3908026;89;21058;-83
2022/01/17 23:54:04;;;;;;;30.93;10.17;;;;;;;-1.66;97.75;99963.83;3903456;89;21579;-83
